Time;durP1;ratioP1;P1;durP2;ratioP2;P2;SDS_P1;SDS_P2;PMS_P1;PMS_P2;Temp;Humidity;BMP_temperature;BMP_pressure;BME280_temperature;BME280_humidity;BME280_pressure;Samples;Min_cycle;Max_cycle;Signal;HPM_P1;HPM_P2
2022/05/27 00:00:21;;;;;;;5.22;2.30;;;;;;;;;;4997481;28;20213;-47
2022/05/27 00:03:02;;;;;;;4.95;2.40;;;;;;;;;;4998179;28;20190;-50
2022/05/27 00:05:29;;;;;;;3.92;2.38;;;;;;;;;;4997290;28;20308;-47
2022/05/27 00:07:56;;;;;;;4.82;2.70;;;;;;;;;;4997527;28;20198;-48
2022/05/27 00:10:22;;;;;;;8.77;2.45;;;;;;;;;;4997465;28;20212;-49
2022/05/27 00:12:50;;;;;;;3.13;2.03;;;;;;;;;;4997260;28;20210;-47
2022/05/27 00:15:17;;;;;;;8.05;2.60;;;;;;;;;;4997089;28;20637;-48
2022/05/27 00:17:44;;;;;;;4.95;2.30;;;;;;;;;;4997115;28;20202;-48
2022/05/27 00:20:11;;;;;;;5.90;2.33;;;;;;;;;;4997012;28;20209;-48
2022/05/27 00:22:38;;;;;;;5.30;2.50;;;;;;;;;;4996384;28;20206;-47
2022/05/27 00:25:06;;;;;;;6.10;2.47;;;;;;;;;;4996829;28;20241;-47
2022/05/27 00:27:33;;;;;;;7.75;2.92;;;;;;;;;;4997119;28;20206;-48
2022/05/27 00:30:00;;;;;;;4.38;2.47;;;;;;;;;;4997395;28;20206;-48
2022/05/27 00:32:29;;;;;;;5.53;2.53;;;;;;;;;;4996882;28;20198;-47
2022/05/27 00:34:56;;;;;;;6.70;2.38;;;;;;;;;;4997003;28;20213;-48
2022/05/27 00:37:24;;;;;;;5.18;2.42;;;;;;;;;;4996644;28;20725;-47
2022/05/27 00:39:51;;;;;;;7.25;2.67;;;;;;;;;;4996615;28;20594;-47
2022/05/27 00:42:18;;;;;;;5.18;2.80;;;;;;;;;;4995760;28;20206;-47
2022/05/27 00:44:46;;;;;;;5.35;2.45;;;;;;;;;;4996573;28;20312;-47
2022/05/27 00:47:17;;;;;;;4.28;2.33;;;;;;;;;;4996709;28;20210;-48
2022/05/27 00:49:56;;;;;;;5.32;2.53;;;;;;;;;;4995578;28;20617;-48
2022/05/27 00:52:24;;;;;;;4.75;2.63;;;;;;;;;;4995576;28;20202;-49
2022/05/27 00:54:52;;;;;;;5.00;2.28;;;;;;;;;;4996667;28;20221;-49
2022/05/27 00:57:25;;;;;;;3.58;2.58;;;;;;;;;;4996759;28;20202;-48
2022/05/27 00:59:58;;;;;;;7.38;2.65;;;;;;;;;;4995722;28;20261;-50
2022/05/27 01:02:27;;;;;;;13.02;2.83;;;;;;;;;;4995852;28;20190;-47
2022/05/27 01:04:54;;;;;;;8.80;2.53;;;;;;;;;;4995942;28;20238;-47
2022/05/27 01:07:21;;;;;;;4.65;2.35;;;;;;;;;;4996228;28;20202;-47
2022/05/27 01:09:49;;;;;;;6.10;2.72;;;;;;;;;;4996398;28;20256;-48
2022/05/27 01:12:35;;;;;;;6.32;2.83;;;;;;;;;;4996307;28;20213;-47
2022/05/27 01:15:22;;;;;;;4.32;2.60;;;;;;;;;;4996265;28;20280;-48
2022/05/27 01:17:58;;;;;;;4.25;2.53;;;;;;;;;;4995184;28;20210;-47
2022/05/27 01:20:42;;;;;;;5.28;2.70;;;;;;;;;;4995909;28;20532;-47
2022/05/27 01:23:32;;;;;;;5.43;2.40;;;;;;;;;;5027435;28;20213;-47
2022/05/27 01:26:34;;;;;;;4.68;2.60;;;;;;;;;;5011456;28;20540;-47
2022/05/27 01:29:25;;;;;;;3.97;2.92;;;;;;;;;;4995121;28;20209;-48
2022/05/27 01:31:57;;;;;;;4.60;2.92;;;;;;;;;;4995657;28;20207;-47
2022/05/27 01:34:44;;;;;;;5.75;2.50;;;;;;;;;;4995781;28;20225;-47
2022/05/27 01:37:18;;;;;;;8.52;2.88;;;;;;;;;;4996027;28;20221;-47
2022/05/27 01:39:50;;;;;;;5.65;2.47;;;;;;;;;;5027068;28;20201;-48
2022/05/27 01:42:23;;;;;;;4.47;2.53;;;;;;;;;;4995205;28;20191;-48
2022/05/27 01:44:58;;;;;;;5.03;2.72;;;;;;;;;;4995325;28;20226;-48
2022/05/27 01:47:34;;;;;;;5.10;2.72;;;;;;;;;;4995293;28;20279;-48
2022/05/27 01:50:07;;;;;;;8.18;3.05;;;;;;;;;;4994554;28;20238;-48
2022/05/27 01:52:41;;;;;;;8.68;2.72;;;;;;;;;;4995272;28;20213;-47
2022/05/27 01:55:22;;;;;;;5.43;3.00;;;;;;;;;;4995420;28;20206;-47
2022/05/27 01:57:56;;;;;;;3.53;2.78;;;;;;;;;;4994515;28;20225;-47
2022/05/27 02:00:26;;;;;;;4.30;2.80;;;;;;;;;;4994327;28;20209;-47
2022/05/27 02:02:59;;;;;;;5.10;3.00;;;;;;;;;;4994305;28;20206;-47
2022/05/27 02:06:01;;;;;;;5.60;3.00;;;;;;;;;;4995114;28;20238;-48
2022/05/27 02:08:33;;;;;;;4.35;2.63;;;;;;;;;;4954558;29;20214;-49
2022/05/27 02:11:05;;;;;;;8.82;3.25;;;;;;;;;;4938968;29;20211;-47
2022/05/27 02:13:38;;;;;;;6.82;3.00;;;;;;;;;;4954694;29;20213;-47
2022/05/27 02:16:12;;;;;;;7.57;2.70;;;;;;;;;;4939092;29;20553;-48
2022/05/27 02:18:58;;;;;;;11.75;3.53;;;;;;;;;;4938911;29;20623;-51
2022/05/27 02:21:41;;;;;;;5.55;2.95;;;;;;;;;;4938986;29;20615;-48
2022/05/27 02:24:55;;;;;;;6.10;3.20;;;;;;;;;;4938737;29;20274;-48
2022/05/27 02:27:27;;;;;;;7.45;3.25;;;;;;;;;;4938893;29;20207;-48
2022/05/27 02:29:59;;;;;;;5.38;2.97;;;;;;;;;;4938946;29;20505;-48
2022/05/27 02:32:40;;;;;;;7.60;2.92;;;;;;;;;;4938775;29;20693;-47
2022/05/27 02:35:13;;;;;;;5.97;2.85;;;;;;;;;;4938739;29;20217;-49
2022/05/27 02:37:55;;;;;;;5.68;3.10;;;;;;;;;;4938753;29;20208;-47
2022/05/27 02:40:23;;;;;;;9.20;3.08;;;;;;;;;;4954520;29;20230;-48
2022/05/27 02:43:13;;;;;;;6.53;2.97;;;;;;;;;;4938611;28;20299;-48
2022/05/27 02:46:17;;;;;;;5.97;2.70;;;;;;;;;;4995164;28;20226;-48
2022/05/27 02:49:07;;;;;;;6.78;3.22;;;;;;;;;;4994369;28;20209;-48
2022/05/27 02:51:50;;;;;;;6.72;2.75;;;;;;;;;;4994779;28;20636;-49
2022/05/27 02:54:24;;;;;;;5.90;3.20;;;;;;;;;;4995976;28;20214;-47
2022/05/27 02:56:57;;;;;;;4.63;3.03;;;;;;;;;;4997767;28;20280;-48
2022/05/27 02:59:25;;;;;;;5.93;3.10;;;;;;;;;;4980795;28;20217;-55
2022/05/27 03:01:52;;;;;;;7.22;2.75;;;;;;;;;;4998521;28;20229;-50
2022/05/27 03:04:20;;;;;;;6.75;3.50;;;;;;;;;;4997454;28;20263;-47
2022/05/27 03:06:55;;;;;;;8.75;3.08;;;;;;;;;;4997790;28;20249;-48
2022/05/27 03:09:42;;;;;;;5.88;2.92;;;;;;;;;;5030405;28;20190;-48
2022/05/27 03:12:18;;;;;;;5.25;2.95;;;;;;;;;;4997753;28;20198;-48
2022/05/27 03:15:04;;;;;;;6.68;3.20;;;;;;;;;;4998622;28;20532;-49
2022/05/27 03:17:43;;;;;;;4.78;2.88;;;;;;;;;;4998819;28;20202;-51
2022/05/27 03:20:19;;;;;;;4.03;3.08;;;;;;;;;;4998126;28;20201;-51
2022/05/27 03:23:11;;;;;;;7.22;3.10;;;;;;;;;;4998469;28;20202;-50
2022/05/27 03:25:54;;;;;;;6.53;2.80;;;;;;;;;;4998150;28;20230;-47
2022/05/27 03:28:28;;;;;;;3.88;2.83;;;;;;;;;;4998014;28;20206;-47
2022/05/27 03:31:04;;;;;;;6.38;2.95;;;;;;;;;;5029707;28;20241;-49
2022/05/27 03:33:36;;;;;;;5.95;3.17;;;;;;;;;;4997926;28;20202;-47
2022/05/27 03:36:12;;;;;;;8.38;3.17;;;;;;;;;;4998283;28;20281;-53
2022/05/27 03:38:48;;;;;;;7.85;3.55;;;;;;;;;;5029433;28;20219;-54
2022/05/27 03:41:26;;;;;;;7.85;3.38;;;;;;;;;;5020473;28;20193;-50
2022/05/27 03:43:53;;;;;;;4.57;3.30;;;;;;;;;;5019803;28;20512;-48
2022/05/27 03:46:31;;;;;;;6.03;3.70;;;;;;;;;;5024234;28;20201;-48
2022/05/27 03:48:59;;;;;;;4.90;4.40;;;;;;;;;;5024739;28;20206;-47
2022/05/27 03:51:29;;;;;;;5.38;4.68;;;;;;;;;;5024708;28;20209;-49
2022/05/27 03:54:05;;;;;;;9.57;4.57;;;;;;;;;;5018007;28;20237;-47
2022/05/27 03:56:39;;;;;;;10.60;4.82;;;;;;;;;;5032574;28;20196;-47
2022/05/27 03:59:08;;;;;;;7.18;5.00;;;;;;;;;;5036454;28;20196;-48
2022/05/27 04:01:38;;;;;;;12.00;4.70;;;;;;;;;;5023492;28;20642;-48
2022/05/27 04:04:07;;;;;;;6.97;4.22;;;;;;;;;;5024744;28;20197;-53
2022/05/27 04:06:34;;;;;;;6.15;4.38;;;;;;;;;;5025481;28;20299;-47
2022/05/27 04:09:01;;;;;;;10.70;4.63;;;;;;;;;;5028807;28;20213;-47
2022/05/27 04:11:28;;;;;;;7.18;4.32;;;;;;;;;;5019939;28;20199;-52
2022/05/27 04:13:56;;;;;;;11.32;4.18;;;;;;;;;;5021983;28;20577;-47
2022/05/27 04:16:24;;;;;;;6.25;4.05;;;;;;;;;;5026365;28;20530;-49
2022/05/27 04:18:51;;;;;;;7.13;3.95;;;;;;;;;;5018989;28;20734;-52
2022/05/27 04:21:18;;;;;;;5.65;3.92;;;;;;;;;;5029264;28;20278;-48
2022/05/27 04:23:46;;;;;;;10.95;4.55;;;;;;;;;;5015828;28;20216;-51
2022/05/27 04:26:13;;;;;;;7.28;3.95;;;;;;;;;;5016036;28;20272;-54
2022/05/27 04:28:40;;;;;;;10.18;4.00;;;;;;;;;;5015934;28;20236;-48
2022/05/27 04:31:07;;;;;;;8.10;3.88;;;;;;;;;;5015440;28;20252;-48
2022/05/27 04:33:34;;;;;;;5.47;3.33;;;;;;;;;;5015243;28;20255;-49
2022/05/27 04:36:02;;;;;;;4.60;3.50;;;;;;;;;;5015501;28;20731;-49
2022/05/27 04:38:30;;;;;;;7.32;3.30;;;;;;;;;;5015682;28;20229;-48
2022/05/27 04:40:57;;;;;;;7.13;3.55;;;;;;;;;;5015367;28;20229;-47
2022/05/27 04:43:24;;;;;;;8.20;3.40;;;;;;;;;;5015073;28;20327;-49
2022/05/27 04:45:51;;;;;;;12.63;3.15;;;;;;;;;;5014270;28;20237;-50
2022/05/27 04:48:19;;;;;;;9.50;3.28;;;;;;;;;;5013600;28;20221;-51
2022/05/27 04:50:46;;;;;;;10.68;3.70;;;;;;;;;;5011943;28;20236;-51
2022/05/27 04:53:14;;;;;;;8.07;2.83;;;;;;;;;;4994643;28;20225;-47
2022/05/27 04:55:42;;;;;;;9.05;3.22;;;;;;;;;;5014030;28;20225;-53
2022/05/27 04:58:11;;;;;;;10.32;3.38;;;;;;;;;;5013736;28;20213;-53
2022/05/27 05:00:44;;;;;;;8.20;3.13;;;;;;;;;;5013953;28;20225;-50
2022/05/27 05:03:12;;;;;;;7.47;2.50;;;;;;;;;;5005891;28;20253;-51
2022/05/27 05:05:40;;;;;;;10.48;2.90;;;;;;;;;;5015279;28;20245;-50
2022/05/27 05:08:15;;;;;;;4.47;2.88;;;;;;;;;;5014971;28;20228;-54
2022/05/27 05:10:42;;;;;;;5.43;2.95;;;;;;;;;;5015171;28;20240;-49
2022/05/27 05:13:09;;;;;;;5.50;2.67;;;;;;;;;;5013944;28;20233;-55
2022/05/27 05:15:36;;;;;;;6.57;2.70;;;;;;;;;;5015240;28;20225;-49
2022/05/27 05:18:03;;;;;;;5.95;2.60;;;;;;;;;;5012791;28;20225;-50
2022/05/27 05:20:32;;;;;;;9.40;3.00;;;;;;;;;;5015152;28;20228;-50
2022/05/27 05:22:59;;;;;;;7.72;3.00;;;;;;;;;;5014472;28;20217;-53
2022/05/27 05:25:26;;;;;;;5.93;3.08;;;;;;;;;;5014202;28;20256;-49
2022/05/27 05:27:54;;;;;;;6.93;2.92;;;;;;;;;;5014632;28;20244;-49
2022/05/27 05:30:24;;;;;;;6.03;2.70;;;;;;;;;;5014723;28;20221;-50
2022/05/27 05:32:52;;;;;;;6.07;3.10;;;;;;;;;;5014057;28;20221;-49
2022/05/27 05:35:20;;;;;;;6.00;2.63;;;;;;;;;;5015030;28;20668;-48
2022/05/27 05:37:48;;;;;;;4.85;2.90;;;;;;;;;;5015687;28;20299;-49
2022/05/27 05:40:16;;;;;;;6.13;2.75;;;;;;;;;;5015099;28;20711;-52
2022/05/27 05:42:46;;;;;;;9.75;2.80;;;;;;;;;;5015264;28;20633;-48
2022/05/27 05:45:15;;;;;;;5.88;2.80;;;;;;;;;;5015477;28;20315;-49
2022/05/27 05:47:42;;;;;;;7.75;2.60;;;;;;;;;;5015410;28;20216;-48
2022/05/27 05:50:11;;;;;;;5.97;3.10;;;;;;;;;;5015070;28;20216;-48
2022/05/27 05:52:38;;;;;;;4.20;2.88;;;;;;;;;;5015366;28;20202;-49
2022/05/27 05:55:07;;;;;;;5.00;3.00;;;;;;;;;;5015051;28;20201;-48
2022/05/27 05:57:38;;;;;;;9.55;3.25;;;;;;;;;;5015291;28;20212;-51
2022/05/27 06:00:06;;;;;;;7.95;3.20;;;;;;;;;;5015344;28;20263;-48
2022/05/27 06:02:38;;;;;;;9.60;3.13;;;;;;;;;;5014874;28;20189;-50
2022/05/27 06:05:05;;;;;;;6.90;3.28;;;;;;;;;;5014822;28;20245;-48
2022/05/27 06:07:33;;;;;;;6.45;3.60;;;;;;;;;;5015264;28;20233;-48
2022/05/27 06:10:01;;;;;;;7.85;3.53;;;;;;;;;;5014812;28;20202;-49
2022/05/27 06:12:32;;;;;;;7.20;3.60;;;;;;;;;;5014782;28;20287;-50
2022/05/27 06:15:00;;;;;;;6.43;3.55;;;;;;;;;;5015482;28;20209;-50
2022/05/27 06:17:28;;;;;;;7.53;3.83;;;;;;;;;;5014991;28;20205;-49
2022/05/27 06:19:55;;;;;;;6.15;3.65;;;;;;;;;;5015059;28;20212;-48
2022/05/27 06:22:22;;;;;;;9.70;4.35;;;;;;;;;;5015222;28;20197;-49
2022/05/27 06:24:49;;;;;;;5.88;3.75;;;;;;;;;;5013831;28;20229;-48
2022/05/27 06:27:17;;;;;;;8.88;3.88;;;;;;;;;;5014697;28;20201;-48
2022/05/27 06:35:15;;;;;;;7.40;4.53;;;;;;;;;;5018941;28;20292;-49
2022/05/27 06:37:43;;;;;;;8.52;4.65;;;;;;;;;;5018686;28;20281;-47
2022/05/27 06:40:10;;;;;;;8.13;4.38;;;;;;;;;;5018553;28;20197;-50
2022/05/27 06:42:37;;;;;;;6.95;4.95;;;;;;;;;;5018990;28;20213;-50
2022/05/27 06:45:08;;;;;;;8.30;5.00;;;;;;;;;;5018577;28;20244;-48
2022/05/27 06:47:35;;;;;;;9.98;5.38;;;;;;;;;;5018567;28;20200;-47
2022/05/27 06:50:02;;;;;;;9.82;5.20;;;;;;;;;;5018639;28;20198;-49
2022/05/27 06:52:30;;;;;;;10.02;5.68;;;;;;;;;;5018572;28;20201;-49
2022/05/27 06:54:57;;;;;;;6.97;5.10;;;;;;;;;;5018349;28;20236;-48
2022/05/27 06:57:25;;;;;;;11.50;5.47;;;;;;;;;;5018320;28;20217;-47
2022/05/27 06:59:52;;;;;;;7.95;5.50;;;;;;;;;;5018925;28;20216;-47
2022/05/27 07:02:22;;;;;;;6.50;5.30;;;;;;;;;;5018743;28;20205;-48
2022/05/27 07:04:49;;;;;;;8.10;5.70;;;;;;;;;;5018071;28;20201;-48
2022/05/27 07:07:16;;;;;;;7.38;5.38;;;;;;;;;;5018310;28;20217;-47
2022/05/27 07:09:43;;;;;;;8.32;5.82;;;;;;;;;;5018274;28;20213;-47
2022/05/27 07:12:12;;;;;;;11.10;5.68;;;;;;;;;;5018028;28;20631;-50
2022/05/27 07:14:39;;;;;;;10.77;5.88;;;;;;;;;;5017968;28;20531;-48
2022/05/27 07:17:06;;;;;;;9.82;6.10;;;;;;;;;;5018192;28;20271;-50
2022/05/27 07:19:39;;;;;;;6.57;5.47;;;;;;;;;;5017941;28;20211;-48
2022/05/27 07:22:10;;;;;;;10.75;5.93;;;;;;;;;;5017654;28;20205;-53
2022/05/27 07:24:38;;;;;;;11.73;6.60;;;;;;;;;;5017726;28;20228;-47
2022/05/27 07:27:05;;;;;;;10.75;5.80;;;;;;;;;;5018134;28;20221;-47
2022/05/27 07:29:32;;;;;;;9.55;6.20;;;;;;;;;;5017824;28;20277;-48
2022/05/27 07:31:59;;;;;;;9.45;6.25;;;;;;;;;;5017755;28;20211;-47
2022/05/27 07:34:27;;;;;;;10.00;6.07;;;;;;;;;;5017508;28;20198;-47
2022/05/27 07:36:54;;;;;;;9.10;6.22;;;;;;;;;;5017767;28;20216;-47
2022/05/27 07:39:21;;;;;;;9.77;6.30;;;;;;;;;;5017096;28;20297;-48
2022/05/27 07:41:48;;;;;;;7.90;5.57;;;;;;;;;;5017428;28;20208;-48
2022/05/27 07:44:16;;;;;;;9.48;5.97;;;;;;;;;;5017830;28;20289;-47
2022/05/27 07:46:43;;;;;;;8.63;5.40;;;;;;;;;;5017531;28;20221;-47
2022/05/27 07:49:10;;;;;;;8.50;5.97;;;;;;;;;;5017919;28;20201;-47
2022/05/27 07:51:58;;;;;;;9.98;5.43;;;;;;;;;;5017137;28;20667;-48
2022/05/27 07:54:25;;;;;;;9.65;5.95;;;;;;;;;;5017329;28;20201;-47
2022/05/27 07:56:52;;;;;;;10.63;5.72;;;;;;;;;;5017356;28;20240;-47
2022/05/27 07:59:19;;;;;;;13.95;6.13;;;;;;;;;;5016972;28;20213;-47
2022/05/27 08:01:46;;;;;;;9.80;5.90;;;;;;;;;;5017013;28;20209;-47
2022/05/27 08:04:13;;;;;;;9.50;6.00;;;;;;;;;;5016936;28;20228;-47
2022/05/27 08:06:41;;;;;;;10.43;6.05;;;;;;;;;;5017237;28;20237;-47
2022/05/27 08:09:12;;;;;;;10.75;5.88;;;;;;;;;;5017056;28;20271;-47
2022/05/27 08:11:39;;;;;;;9.10;5.45;;;;;;;;;;5016721;28;20233;-48
2022/05/27 08:14:07;;;;;;;8.85;5.93;;;;;;;;;;5016915;28;20201;-49
2022/05/27 08:16:34;;;;;;;10.73;6.53;;;;;;;;;;5016965;28;20539;-47
2022/05/27 08:19:02;;;;;;;10.52;7.10;;;;;;;;;;5016883;28;20292;-47
2022/05/27 08:21:30;;;;;;;9.68;6.50;;;;;;;;;;5016758;28;20710;-47
2022/05/27 08:23:57;;;;;;;10.07;6.55;;;;;;;;;;5017007;28;20215;-47
2022/05/27 08:26:24;;;;;;;12.07;7.13;;;;;;;;;;5016510;28;20225;-48
2022/05/27 08:28:51;;;;;;;12.30;6.25;;;;;;;;;;5017126;28;20212;-47
2022/05/27 08:31:18;;;;;;;11.57;6.65;;;;;;;;;;5016748;28;20220;-47
2022/05/27 08:39:17;;;;;;;9.18;6.93;;;;;;;;;;5017236;28;20205;-47
2022/05/27 08:42:06;;;;;;;13.57;7.13;;;;;;;;;;5016729;28;20205;-48
2022/05/27 08:44:37;;;;;;;20.02;7.45;;;;;;;;;;5016410;28;20531;-47
2022/05/27 08:47:25;;;;;;;11.88;6.50;;;;;;;;;;5015572;28;20240;-48
2022/05/27 08:50:04;;;;;;;8.57;6.22;;;;;;;;;;5000752;28;20213;-48
2022/05/27 08:52:38;;;;;;;11.30;6.28;;;;;;;;;;5015389;28;20654;-48
2022/05/27 09:01:22;;;;;;;9.77;5.88;;;;;;;;;;5016077;28;20656;-49
2022/05/27 09:04:00;;;;;;;8.80;5.80;;;;;;;;;;5015996;28;20276;-48
2022/05/27 09:06:35;;;;;;;7.55;5.28;;;;;;;;;;5014820;28;20240;-47
2022/05/27 09:09:06;;;;;;;11.13;5.47;;;;;;;;;;5015265;28;20227;-46
2022/05/27 09:12:11;;;;;;;9.35;5.05;;;;;;;;;;5015019;28;20643;-46
2022/05/27 09:14:44;;;;;;;10.60;5.93;;;;;;;;;;5015930;28;20558;-47
2022/05/27 09:17:15;;;;;;;8.13;5.40;;;;;;;;;;5016405;28;20205;-48
2022/05/27 09:19:51;;;;;;;9.43;5.28;;;;;;;;;;5015663;28;20309;-47
2022/05/27 09:22:38;;;;;;;9.63;5.80;;;;;;;;;;5016076;28;20299;-46
2022/05/27 09:25:17;;;;;;;8.68;5.03;;;;;;;;;;5015063;28;20205;-46
2022/05/27 09:27:53;;;;;;;10.35;5.30;;;;;;;;;;4998090;28;20590;-47
2022/05/27 09:30:20;;;;;;;13.68;5.10;;;;;;;;;;5015412;28;20197;-47
2022/05/27 09:33:00;;;;;;;10.43;5.85;;;;;;;;;;5014665;28;20201;-47
2022/05/27 09:35:32;;;;;;;7.65;5.32;;;;;;;;;;5014738;28;20336;-47
2022/05/27 09:38:14;;;;;;;12.20;5.45;;;;;;;;;;5015337;28;20194;-47
2022/05/27 09:40:47;;;;;;;9.98;6.32;;;;;;;;;;5014853;28;20201;-47
2022/05/27 09:43:25;;;;;;;9.48;5.50;;;;;;;;;;5015749;28;20201;-46
2022/05/27 09:45:55;;;;;;;13.48;6.43;;;;;;;;;;5015086;28;20679;-46
2022/05/27 09:48:22;;;;;;;8.65;6.28;;;;;;;;;;5015819;28;20201;-47
2022/05/27 09:50:49;;;;;;;11.40;6.68;;;;;;;;;;4981286;28;20216;-48
2022/05/27 09:53:24;;;;;;;10.45;7.13;;;;;;;;;;5015335;28;20547;-46
2022/05/27 09:56:02;;;;;;;10.23;6.78;;;;;;;;;;5015344;28;20235;-46
2022/05/27 09:58:32;;;;;;;8.48;6.90;;;;;;;;;;5014266;28;20216;-47
2022/05/27 10:01:03;;;;;;;11.13;7.40;;;;;;;;;;5015368;28;20209;-48
2022/05/27 10:03:34;;;;;;;11.00;7.25;;;;;;;;;;5014686;28;20204;-46
2022/05/27 10:06:08;;;;;;;11.75;8.00;;;;;;;;;;5014873;28;20265;-46
2022/05/27 10:08:56;;;;;;;10.93;7.88;;;;;;;;;;5015090;28;20551;-47
2022/05/27 10:11:27;;;;;;;14.32;7.93;;;;;;;;;;5014912;28;20186;-47
2022/05/27 10:14:07;;;;;;;9.90;7.45;;;;;;;;;;5015489;28;20217;-47
2022/05/27 10:16:35;;;;;;;10.15;6.50;;;;;;;;;;5014805;28;20205;-47
2022/05/27 10:19:13;;;;;;;13.13;7.20;;;;;;;;;;5014990;28;20205;-47
2022/05/27 10:22:01;;;;;;;8.35;6.35;;;;;;;;;;5015706;28;20192;-46
2022/05/27 10:24:37;;;;;;;9.13;5.88;;;;;;;;;;5015272;28;20326;-47
2022/05/27 10:27:09;;;;;;;11.85;6.20;;;;;;;;;;5014752;28;20252;-50
2022/05/27 10:29:48;;;;;;;11.55;6.80;;;;;;;;;;5015283;28;20209;-46
2022/05/27 10:32:30;;;;;;;10.00;6.80;;;;;;;;;;5014813;28;20288;-46
2022/05/27 10:35:03;;;;;;;8.02;6.28;;;;;;;;;;5014844;28;20205;-46
2022/05/27 10:37:48;;;;;;;11.43;5.43;;;;;;;;;;5015114;28;20208;-47
2022/05/27 10:40:24;;;;;;;7.78;6.07;;;;;;;;;;5015261;28;20217;-48
2022/05/27 10:42:58;;;;;;;11.65;6.68;;;;;;;;;;5014621;28;20646;-48
2022/05/27 10:45:31;;;;;;;10.98;6.45;;;;;;;;;;5014969;28;20268;-47
2022/05/27 10:48:24;;;;;;;9.10;6.30;;;;;;;;;;5014818;28;20239;-48
2022/05/27 10:51:10;;;;;;;11.65;6.70;;;;;;;;;;5014913;28;20224;-47
2022/05/27 10:53:41;;;;;;;10.77;6.28;;;;;;;;;;5014941;28;20206;-47
2022/05/27 10:56:39;;;;;;;9.65;6.22;;;;;;;;;;5014787;28;20205;-48
2022/05/27 11:02:07;;;;;;;11.82;7.25;;;;;;;;;;5015034;28;20264;-46
2022/05/27 11:05:28;;;;;;;8.85;7.18;;;;;;;;;;5014570;28;20287;-49
2022/05/27 11:08:25;;;;;;;8.30;3.88;;;;;;;;;;4938901;29;20239;-46
2022/05/27 11:11:01;;;;;;;9.00;5.03;;;;;;;;;;4954579;29;20195;-47
2022/05/27 11:16:45;;;;;;;7.35;4.47;;;;;;;;;;5017381;28;20393;-49
2022/05/27 11:19:41;;;;;;;3.85;2.42;;;;;;;;;;5018004;28;20209;-49
2022/05/27 11:22:15;;;;;;;4.95;2.45;;;;;;;;;;4997118;28;20526;-49
2022/05/27 11:24:53;;;;;;;7.28;2.50;;;;;;;;;;5017043;28;20219;-46
2022/05/27 11:27:58;;;;;;;4.72;2.40;;;;;;;;;;5017033;28;20224;-46
2022/05/27 11:30:34;;;;;;;3.78;2.22;;;;;;;;;;5017633;28;20259;-47
2022/05/27 11:33:31;;;;;;;5.10;2.55;;;;;;;;;;5018005;28;20197;-47
2022/05/27 11:36:12;;;;;;;4.82;2.75;;;;;;;;;;5017594;28;20205;-46
2022/05/27 11:38:50;;;;;;;4.15;2.38;;;;;;;;;;5018401;28;20201;-46
2022/05/27 11:41:28;;;;;;;6.20;2.45;;;;;;;;;;5016959;28;20201;-46
2022/05/27 11:44:20;;;;;;;3.80;2.50;;;;;;;;;;5017041;28;20201;-48
2022/05/27 11:46:47;;;;;;;3.17;2.88;;;;;;;;;;5017835;28;20217;-48
2022/05/27 11:49:23;;;;;;;6.85;2.92;;;;;;;;;;5017425;28;20206;-46
2022/05/27 11:52:12;;;;;;;7.57;2.97;;;;;;;;;;5017239;28;20193;-47
2022/05/27 11:55:01;;;;;;;4.07;2.67;;;;;;;;;;5017450;28;20205;-47
2022/05/27 11:57:38;;;;;;;3.53;2.92;;;;;;;;;;5017995;28;20209;-48
2022/05/27 12:00:11;;;;;;;4.60;3.40;;;;;;;;;;5017100;28;20213;-46
2022/05/27 12:03:01;;;;;;;4.03;3.63;;;;;;;;;;5017577;28;20263;-46
2022/05/27 12:05:56;;;;;;;5.63;3.85;;;;;;;;;;5010029;28;20253;-46
2022/05/27 12:08:26;;;;;;;5.97;4.03;;;;;;;;;;4983377;28;20225;-46
2022/05/27 12:11:00;;;;;;;7.07;5.00;;;;;;;;;;5017062;28;20202;-46
2022/05/27 12:13:50;;;;;;;5.88;5.07;;;;;;;;;;5017130;28;20227;-46
2022/05/27 12:16:31;;;;;;;5.13;3.50;;;;;;;;;;5016435;28;20215;-46
2022/05/27 12:19:04;;;;;;;9.07;3.85;;;;;;;;;;5016878;28;20209;-48
2022/05/27 12:21:36;;;;;;;3.97;1.80;;;;;;;;;;5016176;28;20241;-46
2022/05/27 12:24:12;;;;;;;3.85;2.00;;;;;;;;;;5016591;28;20580;-45
2022/05/27 12:26:40;;;;;;;5.95;1.98;;;;;;;;;;5016905;28;20308;-46
2022/05/27 12:29:08;;;;;;;4.50;2.50;;;;;;;;;;5015711;28;20644;-46
2022/05/27 12:31:35;;;;;;;3.60;1.90;;;;;;;;;;5015809;28;20296;-46
2022/05/27 12:34:27;;;;;;;3.50;2.33;;;;;;;;;;5014487;28;20205;-46
2022/05/27 12:37:00;;;;;;;3.97;2.17;;;;;;;;;;4996164;28;20226;-46
2022/05/27 12:39:29;;;;;;;6.03;2.50;;;;;;;;;;5011612;28;20308;-48
2022/05/27 12:42:23;;;;;;;3.10;2.28;;;;;;;;;;5015416;28;20229;-46
2022/05/27 12:44:50;;;;;;;3.60;2.40;;;;;;;;;;5004937;28;20312;-48
2022/05/27 12:47:28;;;;;;;5.82;3.72;;;;;;;;;;5015526;28;20248;-47
2022/05/27 12:50:04;;;;;;;2.72;1.83;;;;;;;;;;5014899;28;20607;-50
2022/05/27 12:52:31;;;;;;;4.13;2.20;;;;;;;;;;5015366;28;20298;-51
2022/05/27 12:55:02;;;;;;;3.10;1.90;;;;;;;;;;5015334;28;20231;-51
2022/05/27 13:03:33;;;;;;;3.55;1.50;;;;;;;;;;5015360;28;20245;-48
2022/05/27 13:06:14;;;;;;;6.55;1.85;;;;;;;;;;5014898;28;20248;-47
2022/05/27 13:09:01;;;;;;;2.67;1.40;;;;;;;;;;5015192;28;20221;-47
2022/05/27 13:11:34;;;;;;;3.97;1.80;;;;;;;;;;5014737;28;20236;-51
2022/05/27 13:14:04;;;;;;;2.75;1.58;;;;;;;;;;5013408;28;20606;-48
2022/05/27 13:17:09;;;;;;;1.73;1.50;;;;;;;;;;5005518;28;20231;-53
2022/05/27 13:19:45;;;;;;;2.17;1.60;;;;;;;;;;5007316;28;20702;-48
2022/05/27 13:22:15;;;;;;;1.77;1.45;;;;;;;;;;5010012;28;20217;-47
2022/05/27 13:24:44;;;;;;;2.10;1.38;;;;;;;;;;5005045;28;20267;-48
2022/05/27 13:27:30;;;;;;;3.17;2.13;;;;;;;;;;4994888;28;20561;-45
2022/05/27 13:30:10;;;;;;;3.63;1.40;;;;;;;;;;5000271;28;20217;-50
2022/05/27 13:33:02;;;;;;;2.25;1.50;;;;;;;;;;5008784;28;20213;-50
2022/05/27 13:35:36;;;;;;;3.95;1.92;;;;;;;;;;5006277;28;20309;-49
2022/05/27 13:38:03;;;;;;;2.85;1.48;;;;;;;;;;5011259;28;20225;-51
2022/05/27 13:40:35;;;;;;;2.92;1.52;;;;;;;;;;5015226;28;20298;-53
2022/05/27 13:43:19;;;;;;;2.13;1.30;;;;;;;;;;5027136;28;20240;-48
2022/05/27 13:45:49;;;;;;;4.53;1.60;;;;;;;;;;5013890;28;20283;-46
2022/05/27 13:48:28;;;;;;;4.47;1.58;;;;;;;;;;5015666;28;20261;-47
2022/05/27 13:51:21;;;;;;;4.93;1.35;;;;;;;;;;5012725;28;20225;-49
2022/05/27 13:53:50;;;;;;;2.65;1.60;;;;;;;;;;5012302;28;20240;-49
2022/05/27 13:56:22;;;;;;;7.38;1.50;;;;;;;;;;5010731;28;20214;-46
2022/05/27 13:58:53;;;;;;;2.25;1.30;;;;;;;;;;5028501;28;20252;-45
2022/05/27 14:01:25;;;;;;;8.05;1.27;;;;;;;;;;5043201;28;20241;-50
2022/05/27 14:04:20;;;;;;;2.47;1.42;;;;;;;;;;5011490;28;20221;-47
2022/05/27 14:06:48;;;;;;;3.28;1.52;;;;;;;;;;5011693;28;20726;-46
2022/05/27 14:09:25;;;;;;;1.40;1.30;;;;;;;;;;5012138;28;20292;-48
2022/05/27 14:11:59;;;;;;;2.20;1.10;;;;;;;;;;5012575;28;20224;-48
2022/05/27 14:14:50;;;;;;;2.85;1.23;;;;;;;;;;5009941;28;20682;-59
2022/05/27 14:17:20;;;;;;;4.25;1.25;;;;;;;;;;5007283;28;20675;-54
2022/05/27 14:19:58;;;;;;;1.95;1.20;;;;;;;;;;5010657;28;20225;-50
2022/05/27 14:22:44;;;;;;;3.85;1.20;;;;;;;;;;5011077;28;20279;-54
2022/05/27 14:25:18;;;;;;;1.77;1.40;;;;;;;;;;5011864;28;20225;-56
2022/05/27 14:27:51;;;;;;;2.50;1.15;;;;;;;;;;5005207;28;20229;-53
2022/05/27 14:30:25;;;;;;;2.15;1.35;;;;;;;;;;5009305;28;20249;-51
2022/05/27 14:32:52;;;;;;;3.20;1.55;;;;;;;;;;5012273;28;20233;-51
2022/05/27 14:35:23;;;;;;;4.43;1.42;;;;;;;;;;5010056;28;20308;-51
2022/05/27 14:38:03;;;;;;;7.32;1.48;;;;;;;;;;5012107;28;20720;-53
2022/05/27 14:40:39;;;;;;;2.83;1.58;;;;;;;;;;5011856;28;20229;-54
2022/05/27 14:43:24;;;;;;;10.02;1.50;;;;;;;;;;5011699;28;20236;-51
2022/05/27 14:45:55;;;;;;;2.55;1.50;;;;;;;;;;5012064;28;20229;-55
2022/05/27 14:48:35;;;;;;;2.33;1.33;;;;;;;;;;5012217;28;20221;-53
2022/05/27 14:51:20;;;;;;;2.88;1.50;;;;;;;;;;5014544;28;20319;-57
2022/05/27 14:53:49;;;;;;;3.78;1.38;;;;;;;;;;5015069;28;20232;-53
2022/05/27 14:56:25;;;;;;;4.55;1.30;;;;;;;;;;5016664;28;20236;-55
2022/05/27 14:59:01;;;;;;;3.45;1.80;;;;;;;;;;5015917;28;20227;-55
2022/05/27 15:01:36;;;;;;;1.55;1.40;;;;;;;;;;5015106;28;20671;-56
2022/05/27 15:04:29;;;;;;;2.25;1.35;;;;;;;;;;5012655;28;20225;-57
2022/05/27 15:06:59;;;;;;;3.72;1.27;;;;;;;;;;5016181;28;20237;-53
2022/05/27 15:09:34;;;;;;;4.03;1.35;;;;;;;;;;5016224;28;20217;-53
2022/05/27 15:12:14;;;;;;;2.63;1.80;;;;;;;;;;5011241;28;20233;-58
2022/05/27 15:14:42;;;;;;;5.55;2.05;;;;;;;;;;5013273;28;20233;-57
2022/05/27 15:17:19;;;;;;;3.78;1.50;;;;;;;;;;5016060;28;20232;-58
2022/05/27 15:19:49;;;;;;;3.20;1.70;;;;;;;;;;5013734;28;20233;-58
2022/05/27 15:22:18;;;;;;;2.03;1.50;;;;;;;;;;5016220;28;20225;-58
2022/05/27 15:25:06;;;;;;;3.42;1.80;;;;;;;;;;5014603;28;20233;-56
2022/05/27 15:33:46;;;;;;;1.90;1.20;;;;;;;;;;5014510;28;20236;-58
2022/05/27 15:36:15;;;;;;;3.13;1.42;;;;;;;;;;5014828;28;20213;-58
2022/05/27 15:38:45;;;;;;;3.55;1.70;;;;;;;;;;5023322;28;20236;-51
2022/05/27 15:41:15;;;;;;;3.75;1.98;;;;;;;;;;5015752;28;20244;-55
2022/05/27 15:43:45;;;;;;;4.78;2.10;;;;;;;;;;5046748;28;20663;-55
2022/05/27 15:46:14;;;;;;;4.00;2.30;;;;;;;;;;5015424;28;20252;-53
2022/05/27 15:48:42;;;;;;;3.22;2.30;;;;;;;;;;5014140;28;20237;-58
2022/05/27 15:51:10;;;;;;;7.28;2.90;;;;;;;;;;5015120;28;20221;-53
2022/05/27 15:53:40;;;;;;;4.18;2.92;;;;;;;;;;5015179;28;20311;-54
2022/05/27 15:56:07;;;;;;;4.30;2.70;;;;;;;;;;5015203;28;20249;-55